sensor_id;sensor_type;location;lat;lon;timestamp;temperature;humidity
21944;DHT22;11136;48.778;9.126;2023-05-19T00:01:56;15.50;72.80
21944;DHT22;11136;48.778;9.126;2023-05-19T00:04:24;15.40;72.60
21944;DHT22;11136;48.778;9.126;2023-05-19T00:06:50;15.40;72.60
21944;DHT22;11136;48.778;9.126;2023-05-19T00:09:18;15.40;72.60
21944;DHT22;11136;48.778;9.126;2023-05-19T00:11:43;15.30;72.70
21944;DHT22;11136;48.778;9.126;2023-05-19T00:14:09;15.30;72.90
21944;DHT22;11136;48.778;9.126;2023-05-19T00:16:36;15.30;73.00
21944;DHT22;11136;48.778;9.126;2023-05-19T00:19:03;15.20;73.20
21944;DHT22;11136;48.778;9.126;2023-05-19T00:21:30;15.20;73.40
21944;DHT22;11136;48.778;9.126;2023-05-19T00:23:56;15.20;73.60
21944;DHT22;11136;48.778;9.126;2023-05-19T00:26:22;15.20;73.50
21944;DHT22;11136;48.778;9.126;2023-05-19T00:28:49;15.10;73.60
21944;DHT22;11136;48.778;9.126;2023-05-19T00:31:15;15.10;73.60
21944;DHT22;11136;48.778;9.126;2023-05-19T00:33:40;15.10;74.00
21944;DHT22;11136;48.778;9.126;2023-05-19T00:36:06;15.00;74.10
21944;DHT22;11136;48.778;9.126;2023-05-19T00:38:34;15.00;74.40
21944;DHT22;11136;48.778;9.126;2023-05-19T00:41:01;15.00;74.50
21944;DHT22;11136;48.778;9.126;2023-05-19T00:43:27;15.00;74.60
21944;DHT22;11136;48.778;9.126;2023-05-19T00:45:54;15.00;74.70
21944;DHT22;11136;48.778;9.126;2023-05-19T00:48:20;14.90;74.90
21944;DHT22;11136;48.778;9.126;2023-05-19T00:50:47;14.90;75.10
21944;DHT22;11136;48.778;9.126;2023-05-19T00:53:13;14.90;75.30
21944;DHT22;11136;48.778;9.126;2023-05-19T00:55:41;14.80;75.30
21944;DHT22;11136;48.778;9.126;2023-05-19T00:58:08;14.80;75.40
21944;DHT22;11136;48.778;9.126;2023-05-19T01:00:35;14.80;75.50
21944;DHT22;11136;48.778;9.126;2023-05-19T01:03:02;14.80;75.50
21944;DHT22;11136;48.778;9.126;2023-05-19T01:05:39;14.70;75.30
21944;DHT22;11136;48.778;9.126;2023-05-19T01:08:18;14.70;75.30
21944;DHT22;11136;48.778;9.126;2023-05-19T01:10:44;14.60;75.30
21944;DHT22;11136;48.778;9.126;2023-05-19T01:13:09;14.70;75.40
21944;DHT22;11136;48.778;9.126;2023-05-19T01:15:52;14.60;75.40
21944;DHT22;11136;48.778;9.126;2023-05-19T01:18:28;14.60;75.90
21944;DHT22;11136;48.778;9.126;2023-05-19T01:24:12;14.50;76.10
21944;DHT22;11136;48.778;9.126;2023-05-19T01:27:17;14.50;76.10
21944;DHT22;11136;48.778;9.126;2023-05-19T01:30:21;14.40;76.20
21944;DHT22;11136;48.778;9.126;2023-05-19T01:32:50;14.40;76.20
21944;DHT22;11136;48.778;9.126;2023-05-19T01:35:18;14.40;75.90
21944;DHT22;11136;48.778;9.126;2023-05-19T01:37:45;14.30;76.00
21944;DHT22;11136;48.778;9.126;2023-05-19T01:40:12;14.30;76.20
21944;DHT22;11136;48.778;9.126;2023-05-19T01:42:39;14.30;76.50
21944;DHT22;11136;48.778;9.126;2023-05-19T01:45:06;14.30;76.70
21944;DHT22;11136;48.778;9.126;2023-05-19T01:47:35;14.30;76.80
21944;DHT22;11136;48.778;9.126;2023-05-19T01:50:04;14.30;77.00
21944;DHT22;11136;48.778;9.126;2023-05-19T01:52:30;14.30;77.90
21944;DHT22;11136;48.778;9.126;2023-05-19T01:54:56;14.30;77.30
21944;DHT22;11136;48.778;9.126;2023-05-19T01:57:35;14.30;77.40
21944;DHT22;11136;48.778;9.126;2023-05-19T02:00:16;14.40;77.40
21944;DHT22;11136;48.778;9.126;2023-05-19T02:08:23;14.30;77.80
21944;DHT22;11136;48.778;9.126;2023-05-19T02:11:13;14.30;78.00
21944;DHT22;11136;48.778;9.126;2023-05-19T02:13:42;14.30;78.10
21944;DHT22;11136;48.778;9.126;2023-05-19T02:16:10;14.30;78.20
21944;DHT22;11136;48.778;9.126;2023-05-19T02:18:38;14.20;78.10
21944;DHT22;11136;48.778;9.126;2023-05-19T02:21:04;14.20;78.50
21944;DHT22;11136;48.778;9.126;2023-05-19T02:23:30;14.20;78.40
21944;DHT22;11136;48.778;9.126;2023-05-19T02:25:55;14.20;78.50
21944;DHT22;11136;48.778;9.126;2023-05-19T02:28:21;14.20;78.60
21944;DHT22;11136;48.778;9.126;2023-05-19T02:30:47;14.20;78.70
21944;DHT22;11136;48.778;9.126;2023-05-19T02:33:12;14.20;78.80
21944;DHT22;11136;48.778;9.126;2023-05-19T02:35:38;14.10;78.80
21944;DHT22;11136;48.778;9.126;2023-05-19T02:38:04;14.10;78.80
21944;DHT22;11136;48.778;9.126;2023-05-19T02:40:30;14.10;78.90
21944;DHT22;11136;48.778;9.126;2023-05-19T02:42:55;14.10;79.10
21944;DHT22;11136;48.778;9.126;2023-05-19T02:45:21;14.10;79.20
21944;DHT22;11136;48.778;9.126;2023-05-19T02:47:46;14.10;79.30
21944;DHT22;11136;48.778;9.126;2023-05-19T02:50:12;14.00;79.30
21944;DHT22;11136;48.778;9.126;2023-05-19T02:52:37;14.00;79.40
21944;DHT22;11136;48.778;9.126;2023-05-19T02:55:03;14.00;79.60
21944;DHT22;11136;48.778;9.126;2023-05-19T02:57:29;14.00;79.70
21944;DHT22;11136;48.778;9.126;2023-05-19T02:59:56;14.00;79.90
21944;DHT22;11136;48.778;9.126;2023-05-19T03:02:21;14.00;80.00
21944;DHT22;11136;48.778;9.126;2023-05-19T03:04:47;14.00;80.10
21944;DHT22;11136;48.778;9.126;2023-05-19T03:07:12;14.00;80.10
21944;DHT22;11136;48.778;9.126;2023-05-19T03:09:39;14.00;80.20
21944;DHT22;11136;48.778;9.126;2023-05-19T03:12:05;13.80;80.10
21944;DHT22;11136;48.778;9.126;2023-05-19T03:14:36;14.00;80.20
21944;DHT22;11136;48.778;9.126;2023-05-19T03:17:03;13.90;80.10
21944;DHT22;11136;48.778;9.126;2023-05-19T03:19:28;13.90;80.20
21944;DHT22;11136;48.778;9.126;2023-05-19T03:21:56;13.90;80.30
21944;DHT22;11136;48.778;9.126;2023-05-19T03:24:22;13.80;80.30
21944;DHT22;11136;48.778;9.126;2023-05-19T03:26:47;13.80;80.50
21944;DHT22;11136;48.778;9.126;2023-05-19T03:29:13;13.80;80.70
21944;DHT22;11136;48.778;9.126;2023-05-19T03:31:39;13.80;80.90
21944;DHT22;11136;48.778;9.126;2023-05-19T03:34:04;13.80;81.10
21944;DHT22;11136;48.778;9.126;2023-05-19T03:36:30;13.80;81.20
21944;DHT22;11136;48.778;9.126;2023-05-19T03:38:57;13.80;81.30
21944;DHT22;11136;48.778;9.126;2023-05-19T03:41:23;13.80;81.30
21944;DHT22;11136;48.778;9.126;2023-05-19T03:43:48;13.80;81.50
21944;DHT22;11136;48.778;9.126;2023-05-19T03:46:14;13.80;81.60
21944;DHT22;11136;48.778;9.126;2023-05-19T03:48:39;13.70;81.80
21944;DHT22;11136;48.778;9.126;2023-05-19T03:51:05;13.70;82.10
21944;DHT22;11136;48.778;9.126;2023-05-19T03:53:31;13.70;82.30
21944;DHT22;11136;48.778;9.126;2023-05-19T03:55:57;13.70;82.40
21944;DHT22;11136;48.778;9.126;2023-05-19T03:58:23;13.60;82.50
21944;DHT22;11136;48.778;9.126;2023-05-19T04:00:49;13.60;82.50
21944;DHT22;11136;48.778;9.126;2023-05-19T04:03:15;13.60;82.50
21944;DHT22;11136;48.778;9.126;2023-05-19T04:05:41;13.50;82.50
21944;DHT22;11136;48.778;9.126;2023-05-19T04:08:06;13.50;82.70
21944;DHT22;11136;48.778;9.126;2023-05-19T04:10:32;13.50;82.90
21944;DHT22;11136;48.778;9.126;2023-05-19T04:12:58;13.50;83.20
21944;DHT22;11136;48.778;9.126;2023-05-19T04:15:23;13.50;83.50
21944;DHT22;11136;48.778;9.126;2023-05-19T04:17:49;13.50;83.60
21944;DHT22;11136;48.778;9.126;2023-05-19T04:20:14;13.50;83.80
21944;DHT22;11136;48.778;9.126;2023-05-19T04:22:40;13.40;83.90
21944;DHT22;11136;48.778;9.126;2023-05-19T04:25:07;13.40;84.00
21944;DHT22;11136;48.778;9.126;2023-05-19T04:27:34;13.40;84.20
21944;DHT22;11136;48.778;9.126;2023-05-19T04:30:06;13.40;84.30
21944;DHT22;11136;48.778;9.126;2023-05-19T04:32:32;13.40;84.50
21944;DHT22;11136;48.778;9.126;2023-05-19T04:34:58;13.40;84.60
21944;DHT22;11136;48.778;9.126;2023-05-19T04:37:26;13.40;84.70
21944;DHT22;11136;48.778;9.126;2023-05-19T04:39:52;13.30;84.70
21944;DHT22;11136;48.778;9.126;2023-05-19T04:42:18;13.30;84.80
21944;DHT22;11136;48.778;9.126;2023-05-19T04:44:44;13.30;84.90
21944;DHT22;11136;48.778;9.126;2023-05-19T04:47:10;13.30;85.00
21944;DHT22;11136;48.778;9.126;2023-05-19T04:49:36;13.30;85.00
21944;DHT22;11136;48.778;9.126;2023-05-19T04:52:08;13.30;85.20
21944;DHT22;11136;48.778;9.126;2023-05-19T04:54:37;13.30;85.40
21944;DHT22;11136;48.778;9.126;2023-05-19T04:57:04;13.30;85.50
21944;DHT22;11136;48.778;9.126;2023-05-19T04:59:30;13.30;85.30
21944;DHT22;11136;48.778;9.126;2023-05-19T05:01:56;13.30;85.40
21944;DHT22;11136;48.778;9.126;2023-05-19T05:04:22;13.40;85.40
21944;DHT22;11136;48.778;9.126;2023-05-19T05:06:48;13.40;85.30
21944;DHT22;11136;48.778;9.126;2023-05-19T05:09:15;13.40;85.40
21944;DHT22;11136;48.778;9.126;2023-05-19T05:11:41;13.40;85.40
21944;DHT22;11136;48.778;9.126;2023-05-19T05:14:07;13.40;85.50
21944;DHT22;11136;48.778;9.126;2023-05-19T05:16:33;13.40;85.50
21944;DHT22;11136;48.778;9.126;2023-05-19T05:19:00;13.40;85.60
21944;DHT22;11136;48.778;9.126;2023-05-19T05:21:26;13.40;85.70
21944;DHT22;11136;48.778;9.126;2023-05-19T05:23:52;13.40;85.80
21944;DHT22;11136;48.778;9.126;2023-05-19T05:26:19;13.50;85.90
21944;DHT22;11136;48.778;9.126;2023-05-19T05:28:47;13.50;86.00
21944;DHT22;11136;48.778;9.126;2023-05-19T05:31:13;13.50;86.00
21944;DHT22;11136;48.778;9.126;2023-05-19T05:33:39;13.50;86.00
21944;DHT22;11136;48.778;9.126;2023-05-19T05:36:05;13.50;86.00
21944;DHT22;11136;48.778;9.126;2023-05-19T05:38:31;13.50;86.00
21944;DHT22;11136;48.778;9.126;2023-05-19T05:40:56;13.50;86.00
21944;DHT22;11136;48.778;9.126;2023-05-19T05:43:22;13.60;86.10
21944;DHT22;11136;48.778;9.126;2023-05-19T05:45:47;13.60;86.30
21944;DHT22;11136;48.778;9.126;2023-05-19T05:48:13;13.60;86.30
21944;DHT22;11136;48.778;9.126;2023-05-19T05:50:42;13.60;86.30
21944;DHT22;11136;48.778;9.126;2023-05-19T05:53:08;13.60;86.50
21944;DHT22;11136;48.778;9.126;2023-05-19T05:55:34;13.70;86.60
21944;DHT22;11136;48.778;9.126;2023-05-19T05:58:00;13.70;86.50
21944;DHT22;11136;48.778;9.126;2023-05-19T06:00:26;13.80;86.60
21944;DHT22;11136;48.778;9.126;2023-05-19T06:02:53;13.80;86.50
21944;DHT22;11136;48.778;9.126;2023-05-19T06:05:18;13.80;86.40
21944;DHT22;11136;48.778;9.126;2023-05-19T06:07:45;13.90;86.50
21944;DHT22;11136;48.778;9.126;2023-05-19T06:10:11;13.80;86.30
21944;DHT22;11136;48.778;9.126;2023-05-19T06:12:36;13.90;86.10
21944;DHT22;11136;48.778;9.126;2023-05-19T06:15:07;13.90;85.90
21944;DHT22;11136;48.778;9.126;2023-05-19T06:17:33;14.00;86.10
21944;DHT22;11136;48.778;9.126;2023-05-19T06:20:01;14.00;86.10
21944;DHT22;11136;48.778;9.126;2023-05-19T06:22:26;14.00;86.20
21944;DHT22;11136;48.778;9.126;2023-05-19T06:24:53;14.00;86.20
21944;DHT22;11136;48.778;9.126;2023-05-19T06:27:18;14.10;86.40
21944;DHT22;11136;48.778;9.126;2023-05-19T06:29:44;14.10;86.40
21944;DHT22;11136;48.778;9.126;2023-05-19T06:32:10;14.20;86.70
21944;DHT22;11136;48.778;9.126;2023-05-19T06:34:35;14.20;86.80
21944;DHT22;11136;48.778;9.126;2023-05-19T06:37:03;14.30;86.70
21944;DHT22;11136;48.778;9.126;2023-05-19T06:39:38;14.40;86.80
21944;DHT22;11136;48.778;9.126;2023-05-19T06:42:05;14.50;86.90
21944;DHT22;11136;48.778;9.126;2023-05-19T06:44:30;14.40;86.70
21944;DHT22;11136;48.778;9.126;2023-05-19T06:46:56;14.50;86.70
21944;DHT22;11136;48.778;9.126;2023-05-19T06:49:21;14.50;86.70
21944;DHT22;11136;48.778;9.126;2023-05-19T06:51:48;14.60;86.60
21944;DHT22;11136;48.778;9.126;2023-05-19T06:54:13;14.70;86.60
21944;DHT22;11136;48.778;9.126;2023-05-19T06:56:40;14.70;86.40
21944;DHT22;11136;48.778;9.126;2023-05-19T06:59:05;14.80;86.40
21944;DHT22;11136;48.778;9.126;2023-05-19T07:01:31;14.80;86.50
21944;DHT22;11136;48.778;9.126;2023-05-19T07:03:57;14.80;86.40
21944;DHT22;11136;48.778;9.126;2023-05-19T07:06:22;14.90;86.40
21944;DHT22;11136;48.778;9.126;2023-05-19T07:08:48;14.90;86.30
21944;DHT22;11136;48.778;9.126;2023-05-19T07:11:14;15.00;86.30
21944;DHT22;11136;48.778;9.126;2023-05-19T07:13:40;15.00;86.30
21944;DHT22;11136;48.778;9.126;2023-05-19T07:16:06;15.10;86.10
21944;DHT22;11136;48.778;9.126;2023-05-19T07:18:31;15.10;86.10
21944;DHT22;11136;48.778;9.126;2023-05-19T07:20:57;15.20;86.10
21944;DHT22;11136;48.778;9.126;2023-05-19T07:23:23;15.30;86.00
21944;DHT22;11136;48.778;9.126;2023-05-19T07:25:49;15.40;86.00
21944;DHT22;11136;48.778;9.126;2023-05-19T07:28:14;15.40;85.80
21944;DHT22;11136;48.778;9.126;2023-05-19T07:30:40;15.50;85.90
21944;DHT22;11136;48.778;9.126;2023-05-19T07:33:06;15.50;85.70
21944;DHT22;11136;48.778;9.126;2023-05-19T07:35:31;15.50;85.70
21944;DHT22;11136;48.778;9.126;2023-05-19T07:37:57;15.60;85.60
21944;DHT22;11136;48.778;9.126;2023-05-19T07:40:23;15.60;85.40
21944;DHT22;11136;48.778;9.126;2023-05-19T07:42:49;15.70;85.40
21944;DHT22;11136;48.778;9.126;2023-05-19T07:45:14;15.70;85.40
21944;DHT22;11136;48.778;9.126;2023-05-19T07:47:40;15.70;85.10
21944;DHT22;11136;48.778;9.126;2023-05-19T07:50:06;15.70;84.90
21944;DHT22;11136;48.778;9.126;2023-05-19T07:52:32;15.80;85.00
21944;DHT22;11136;48.778;9.126;2023-05-19T07:54:58;15.90;85.00
21944;DHT22;11136;48.778;9.126;2023-05-19T07:57:23;15.90;84.70
21944;DHT22;11136;48.778;9.126;2023-05-19T07:59:49;16.00;84.60
21944;DHT22;11136;48.778;9.126;2023-05-19T08:02:15;16.00;84.50
21944;DHT22;11136;48.778;9.126;2023-05-19T08:04:40;16.20;84.30
21944;DHT22;11136;48.778;9.126;2023-05-19T08:07:07;16.30;83.90
21944;DHT22;11136;48.778;9.126;2023-05-19T08:09:32;16.10;83.40
21944;DHT22;11136;48.778;9.126;2023-05-19T08:11:58;16.10;83.10
21944;DHT22;11136;48.778;9.126;2023-05-19T08:14:23;16.10;83.00
21944;DHT22;11136;48.778;9.126;2023-05-19T08:16:50;16.10;83.00
21944;DHT22;11136;48.778;9.126;2023-05-19T08:19:16;16.10;82.70
21944;DHT22;11136;48.778;9.126;2023-05-19T08:21:41;16.10;82.50
21944;DHT22;11136;48.778;9.126;2023-05-19T08:24:07;16.10;82.70
21944;DHT22;11136;48.778;9.126;2023-05-19T08:26:33;16.00;82.60
21944;DHT22;11136;48.778;9.126;2023-05-19T08:28:59;16.10;82.60
21944;DHT22;11136;48.778;9.126;2023-05-19T08:31:24;16.10;82.70
21944;DHT22;11136;48.778;9.126;2023-05-19T08:33:50;16.10;82.70
21944;DHT22;11136;48.778;9.126;2023-05-19T08:36:16;16.10;82.60
21944;DHT22;11136;48.778;9.126;2023-05-19T08:38:42;16.10;82.50
21944;DHT22;11136;48.778;9.126;2023-05-19T08:41:07;16.10;82.60
21944;DHT22;11136;48.778;9.126;2023-05-19T08:43:33;16.10;82.90
21944;DHT22;11136;48.778;9.126;2023-05-19T08:45:59;16.40;83.00
21944;DHT22;11136;48.778;9.126;2023-05-19T08:48:28;16.20;82.60
21944;DHT22;11136;48.778;9.126;2023-05-19T08:51:12;16.20;82.50
21944;DHT22;11136;48.778;9.126;2023-05-19T08:53:41;16.20;82.60
21944;DHT22;11136;48.778;9.126;2023-05-19T08:56:17;16.20;82.30
21944;DHT22;11136;48.778;9.126;2023-05-19T08:58:44;16.20;82.20
21944;DHT22;11136;48.778;9.126;2023-05-19T09:01:13;16.30;82.20
21944;DHT22;11136;48.778;9.126;2023-05-19T09:03:42;16.30;82.00
21944;DHT22;11136;48.778;9.126;2023-05-19T09:06:08;16.30;81.90
21944;DHT22;11136;48.778;9.126;2023-05-19T09:08:34;16.30;82.10
21944;DHT22;11136;48.778;9.126;2023-05-19T09:11:01;16.30;82.10
21944;DHT22;11136;48.778;9.126;2023-05-19T09:13:27;16.40;82.20
21944;DHT22;11136;48.778;9.126;2023-05-19T09:15:52;16.40;82.10
21944;DHT22;11136;48.778;9.126;2023-05-19T09:18:20;16.40;82.00
21944;DHT22;11136;48.778;9.126;2023-05-19T09:20:46;16.50;81.80
21944;DHT22;11136;48.778;9.126;2023-05-19T09:23:16;16.50;81.30
21944;DHT22;11136;48.778;9.126;2023-05-19T09:25:49;16.50;81.20
21944;DHT22;11136;48.778;9.126;2023-05-19T09:28:22;16.50;81.30
21944;DHT22;11136;48.778;9.126;2023-05-19T09:30:48;16.50;81.50
21944;DHT22;11136;48.778;9.126;2023-05-19T09:33:18;16.50;81.30
21944;DHT22;11136;48.778;9.126;2023-05-19T09:35:46;16.50;81.30
21944;DHT22;11136;48.778;9.126;2023-05-19T09:38:17;16.60;81.40
21944;DHT22;11136;48.778;9.126;2023-05-19T09:40:43;16.60;81.20
21944;DHT22;11136;48.778;9.126;2023-05-19T09:43:08;16.60;81.20
21944;DHT22;11136;48.778;9.126;2023-05-19T09:45:34;16.60;80.90
21944;DHT22;11136;48.778;9.126;2023-05-19T09:48:02;16.60;80.80
21944;DHT22;11136;48.778;9.126;2023-05-19T09:50:28;16.60;80.70
21944;DHT22;11136;48.778;9.126;2023-05-19T09:52:55;16.60;80.70
21944;DHT22;11136;48.778;9.126;2023-05-19T09:55:24;16.60;80.90
21944;DHT22;11136;48.778;9.126;2023-05-19T09:57:54;16.60;80.80
21944;DHT22;11136;48.778;9.126;2023-05-19T10:00:21;16.70;80.70
21944;DHT22;11136;48.778;9.126;2023-05-19T10:02:48;16.70;80.70
21944;DHT22;11136;48.778;9.126;2023-05-19T10:05:18;16.70;80.80
21944;DHT22;11136;48.778;9.126;2023-05-19T10:07:45;16.80;80.80
21944;DHT22;11136;48.778;9.126;2023-05-19T10:10:13;16.90;80.70
21944;DHT22;11136;48.778;9.126;2023-05-19T10:12:40;16.90;80.50
21944;DHT22;11136;48.778;9.126;2023-05-19T10:15:12;17.00;80.40
21944;DHT22;11136;48.778;9.126;2023-05-19T10:17:38;17.00;80.10
21944;DHT22;11136;48.778;9.126;2023-05-19T10:20:15;17.10;79.90
21944;DHT22;11136;48.778;9.126;2023-05-19T10:22:43;17.10;79.50
21944;DHT22;11136;48.778;9.126;2023-05-19T10:25:09;17.10;79.40
21944;DHT22;11136;48.778;9.126;2023-05-19T10:27:47;17.10;79.30
21944;DHT22;11136;48.778;9.126;2023-05-19T10:30:17;17.00;79.00
21944;DHT22;11136;48.778;9.126;2023-05-19T10:32:46;17.00;79.00
21944;DHT22;11136;48.778;9.126;2023-05-19T10:40:39;16.90;79.30
21944;DHT22;11136;48.778;9.126;2023-05-19T10:45:52;16.90;79.40
21944;DHT22;11136;48.778;9.126;2023-05-19T10:48:21;16.90;79.20
21944;DHT22;11136;48.778;9.126;2023-05-19T10:50:52;16.90;78.90
21944;DHT22;11136;48.778;9.126;2023-05-19T10:53:18;16.90;79.00
21944;DHT22;11136;48.778;9.126;2023-05-19T10:55:53;16.90;79.00
21944;DHT22;11136;48.778;9.126;2023-05-19T11:01:12;16.80;78.90
21944;DHT22;11136;48.778;9.126;2023-05-19T11:03:45;16.80;79.10
21944;DHT22;11136;48.778;9.126;2023-05-19T11:06:28;16.80;79.20
21944;DHT22;11136;48.778;9.126;2023-05-19T11:09:14;16.80;79.00
21944;DHT22;11136;48.778;9.126;2023-05-19T11:11:52;16.80;79.30
21944;DHT22;11136;48.778;9.126;2023-05-19T11:14:25;16.80;79.40
21944;DHT22;11136;48.778;9.126;2023-05-19T11:16:55;16.80;79.60
21944;DHT22;11136;48.778;9.126;2023-05-19T11:19:33;16.80;79.50
21944;DHT22;11136;48.778;9.126;2023-05-19T11:22:12;16.80;79.50
21944;DHT22;11136;48.778;9.126;2023-05-19T11:24:47;16.80;79.40
21944;DHT22;11136;48.778;9.126;2023-05-19T11:27:24;16.80;79.50
21944;DHT22;11136;48.778;9.126;2023-05-19T11:29:54;16.80;79.40
21944;DHT22;11136;48.778;9.126;2023-05-19T11:32:25;16.80;79.50
21944;DHT22;11136;48.778;9.126;2023-05-19T11:34:51;16.80;79.30
21944;DHT22;11136;48.778;9.126;2023-05-19T11:37:17;16.80;79.30
21944;DHT22;11136;48.778;9.126;2023-05-19T11:39:44;16.80;79.40
21944;DHT22;11136;48.778;9.126;2023-05-19T11:42:10;16.80;79.50
21944;DHT22;11136;48.778;9.126;2023-05-19T11:44:36;16.90;79.40
21944;DHT22;11136;48.778;9.126;2023-05-19T11:47:06;16.90;79.30
21944;DHT22;11136;48.778;9.126;2023-05-19T11:49:32;16.90;79.30
21944;DHT22;11136;48.778;9.126;2023-05-19T11:52:02;16.90;79.40
21944;DHT22;11136;48.778;9.126;2023-05-19T11:54:32;16.90;79.30
21944;DHT22;11136;48.778;9.126;2023-05-19T11:57:01;16.90;79.40
21944;DHT22;11136;48.778;9.126;2023-05-19T11:59:32;17.00;79.30
21944;DHT22;11136;48.778;9.126;2023-05-19T12:02:14;17.00;79.20
21944;DHT22;11136;48.778;9.126;2023-05-19T12:04:39;17.00;79.30
21944;DHT22;11136;48.778;9.126;2023-05-19T12:07:05;17.00;79.40
21944;DHT22;11136;48.778;9.126;2023-05-19T12:09:31;17.00;79.40
21944;DHT22;11136;48.778;9.126;2023-05-19T12:11:57;17.10;79.30
21944;DHT22;11136;48.778;9.126;2023-05-19T12:14:24;17.10;79.10
21944;DHT22;11136;48.778;9.126;2023-05-19T12:16:50;17.10;78.90
21944;DHT22;11136;48.778;9.126;2023-05-19T12:19:15;17.10;78.80
21944;DHT22;11136;48.778;9.126;2023-05-19T12:21:41;17.10;78.60
21944;DHT22;11136;48.778;9.126;2023-05-19T12:24:07;17.10;78.70
21944;DHT22;11136;48.778;9.126;2023-05-19T12:26:34;17.20;78.80
21944;DHT22;11136;48.778;9.126;2023-05-19T12:29:01;17.20;78.70
21944;DHT22;11136;48.778;9.126;2023-05-19T12:31:28;17.20;78.70
21944;DHT22;11136;48.778;9.126;2023-05-19T12:33:54;17.20;78.70
21944;DHT22;11136;48.778;9.126;2023-05-19T12:36:22;17.30;78.90
21944;DHT22;11136;48.778;9.126;2023-05-19T12:38:53;17.30;79.00
21944;DHT22;11136;48.778;9.126;2023-05-19T12:41:18;17.30;78.80
21944;DHT22;11136;48.778;9.126;2023-05-19T12:43:44;17.30;78.60
21944;DHT22;11136;48.778;9.126;2023-05-19T12:46:11;17.30;78.50
21944;DHT22;11136;48.778;9.126;2023-05-19T12:48:43;17.30;79.00
21944;DHT22;11136;48.778;9.126;2023-05-19T12:51:10;17.40;78.40
21944;DHT22;11136;48.778;9.126;2023-05-19T12:53:36;17.30;78.10
21944;DHT22;11136;48.778;9.126;2023-05-19T12:56:12;17.30;78.10
21944;DHT22;11136;48.778;9.126;2023-05-19T12:58:42;17.30;78.10
21944;DHT22;11136;48.778;9.126;2023-05-19T13:01:15;17.40;78.30
21944;DHT22;11136;48.778;9.126;2023-05-19T13:03:40;17.30;78.10
21944;DHT22;11136;48.778;9.126;2023-05-19T13:06:07;17.40;78.10
21944;DHT22;11136;48.778;9.126;2023-05-19T13:08:34;17.30;78.20
21944;DHT22;11136;48.778;9.126;2023-05-19T13:10:59;17.30;78.00
21944;DHT22;11136;48.778;9.126;2023-05-19T13:13:25;17.30;78.70
21944;DHT22;11136;48.778;9.126;2023-05-19T13:15:51;17.30;77.70
21944;DHT22;11136;48.778;9.126;2023-05-19T13:18:18;17.30;77.90
21944;DHT22;11136;48.778;9.126;2023-05-19T13:20:44;17.20;77.90
21944;DHT22;11136;48.778;9.126;2023-05-19T13:23:11;17.20;78.10
21944;DHT22;11136;48.778;9.126;2023-05-19T13:25:38;17.20;78.20
21944;DHT22;11136;48.778;9.126;2023-05-19T13:28:04;17.20;78.30
21944;DHT22;11136;48.778;9.126;2023-05-19T13:30:31;17.20;78.60
21944;DHT22;11136;48.778;9.126;2023-05-19T13:32:57;17.20;78.70
21944;DHT22;11136;48.778;9.126;2023-05-19T13:35:22;17.20;78.60
21944;DHT22;11136;48.778;9.126;2023-05-19T13:37:48;17.30;78.70
21944;DHT22;11136;48.778;9.126;2023-05-19T13:40:14;17.30;78.60
21944;DHT22;11136;48.778;9.126;2023-05-19T13:42:41;17.30;78.30
21944;DHT22;11136;48.778;9.126;2023-05-19T13:45:07;17.30;78.40
21944;DHT22;11136;48.778;9.126;2023-05-19T13:47:33;17.30;78.30
21944;DHT22;11136;48.778;9.126;2023-05-19T13:49:59;17.30;78.30
21944;DHT22;11136;48.778;9.126;2023-05-19T13:52:25;17.30;78.30
21944;DHT22;11136;48.778;9.126;2023-05-19T13:54:51;17.20;78.30
21944;DHT22;11136;48.778;9.126;2023-05-19T13:57:19;17.20;78.40
21944;DHT22;11136;48.778;9.126;2023-05-19T13:59:44;17.20;78.30
21944;DHT22;11136;48.778;9.126;2023-05-19T14:02:10;17.10;78.20
21944;DHT22;11136;48.778;9.126;2023-05-19T14:04:36;17.10;78.40
21944;DHT22;11136;48.778;9.126;2023-05-19T14:07:05;17.10;78.50
21944;DHT22;11136;48.778;9.126;2023-05-19T14:09:31;17.00;78.60
21944;DHT22;11136;48.778;9.126;2023-05-19T14:11:57;17.00;78.70
21944;DHT22;11136;48.778;9.126;2023-05-19T14:14:23;17.00;79.00
21944;DHT22;11136;48.778;9.126;2023-05-19T14:16:49;17.00;79.20
21944;DHT22;11136;48.778;9.126;2023-05-19T14:19:14;17.00;79.30
21944;DHT22;11136;48.778;9.126;2023-05-19T14:21:40;17.00;79.30
21944;DHT22;11136;48.778;9.126;2023-05-19T14:24:06;17.10;79.50
21944;DHT22;11136;48.778;9.126;2023-05-19T14:26:31;17.10;79.40
21944;DHT22;11136;48.778;9.126;2023-05-19T14:28:57;17.10;79.40
21944;DHT22;11136;48.778;9.126;2023-05-19T14:31:23;17.10;79.60
21944;DHT22;11136;48.778;9.126;2023-05-19T14:33:48;17.10;79.70
21944;DHT22;11136;48.778;9.126;2023-05-19T14:36:14;17.20;80.10
21944;DHT22;11136;48.778;9.126;2023-05-19T14:38:40;17.30;80.20
21944;DHT22;11136;48.778;9.126;2023-05-19T14:41:06;17.30;80.00
21944;DHT22;11136;48.778;9.126;2023-05-19T14:43:31;17.40;79.90
21944;DHT22;11136;48.778;9.126;2023-05-19T14:45:57;17.50;79.70
21944;DHT22;11136;48.778;9.126;2023-05-19T14:48:23;17.50;79.70
21944;DHT22;11136;48.778;9.126;2023-05-19T14:50:49;17.50;79.60
21944;DHT22;11136;48.778;9.126;2023-05-19T14:53:15;17.60;79.60
21944;DHT22;11136;48.778;9.126;2023-05-19T14:55:46;17.50;79.30
21944;DHT22;11136;48.778;9.126;2023-05-19T14:58:11;17.50;79.40
21944;DHT22;11136;48.778;9.126;2023-05-19T15:00:37;17.40;79.30
21944;DHT22;11136;48.778;9.126;2023-05-19T15:03:03;17.40;79.20
21944;DHT22;11136;48.778;9.126;2023-05-19T15:05:29;17.40;79.40
21944;DHT22;11136;48.778;9.126;2023-05-19T15:07:54;17.40;80.10
21944;DHT22;11136;48.778;9.126;2023-05-19T15:10:20;17.40;79.40
21944;DHT22;11136;48.778;9.126;2023-05-19T15:12:46;17.40;79.30
21944;DHT22;11136;48.778;9.126;2023-05-19T15:15:11;17.40;79.40
21944;DHT22;11136;48.778;9.126;2023-05-19T15:17:38;17.40;79.50
21944;DHT22;11136;48.778;9.126;2023-05-19T15:20:04;17.50;80.20
21944;DHT22;11136;48.778;9.126;2023-05-19T15:22:30;17.40;79.50
21944;DHT22;11136;48.778;9.126;2023-05-19T15:24:55;17.40;79.70
21944;DHT22;11136;48.778;9.126;2023-05-19T15:27:21;17.30;79.60
21944;DHT22;11136;48.778;9.126;2023-05-19T15:29:47;17.30;79.60
21944;DHT22;11136;48.778;9.126;2023-05-19T15:32:12;17.30;79.70
21944;DHT22;11136;48.778;9.126;2023-05-19T15:34:38;17.30;79.90
21944;DHT22;11136;48.778;9.126;2023-05-19T15:37:03;17.30;80.20
21944;DHT22;11136;48.778;9.126;2023-05-19T15:39:29;17.40;80.40
21944;DHT22;11136;48.778;9.126;2023-05-19T15:41:55;17.40;80.40
21944;DHT22;11136;48.778;9.126;2023-05-19T15:44:21;17.40;80.40
21944;DHT22;11136;48.778;9.126;2023-05-19T15:46:46;17.50;80.50
21944;DHT22;11136;48.778;9.126;2023-05-19T15:49:12;17.50;80.40
21944;DHT22;11136;48.778;9.126;2023-05-19T15:51:38;17.50;80.40